AirNav   Air Wisconsin pilot careers
 
 1178 users online  

36NJ Colliers Mills Heliport
Cassville, New Jersey, USA

GOING TO CASSVILLE?


FAA INFORMATION EFFECTIVE 01 FEBRUARY 2018

Location

FAA Identifier: 36NJ
Lat/Long: 40-03-48.4110N / 074-26-28.5420W
40-03.806850N / 074-26.475700W
40.0634475 / -74.4412617
(estimated)
Elevation: 130 ft. / 40 m (estimated)
Variation: 12W (1985)
From city: 4 miles SW of CASSVILLE, NJ
Time zone: UTC -5 (UTC -4 during Daylight Saving Time)
Zip code: 08533

Heliport Operations

Heliport use: Private use. Permission required prior to landing
Activation date: 11/1982
Control tower: no
ARTCC: NEW YORK CENTER
FSS: MILLVILLE FLIGHT SERVICE STATION
Attendance: APR-MAY 1000-1800
Wind indicator: yes
Segmented circle: no

Heliport Communications

WX AWOS-3PT at MJX (11 nm SE): 119.875 (732-797-2542)
WX AWOS-AV at N12 (12 nm E): 122.8 (732-363-6471)
WX AWOS-3PT at BLM (16 nm NE): 121.625 (732-938-3330)
WX ASOS at VAY (20 nm W): 119.325 (609-267-1176)

Nearby radio navigation aids

VOR radial/distance  VOR name  Freq  Var
GXUr078/7.8MC GUIRE VORTAC110.6012W
RBVr174/8.7ROBBINSVILLE VORTAC113.8010W
CYNr008/14.8COYLE VORTAC113.4010W
COLr232/19.7COLTS NECK VOR/DME115.4011W
ARDr128/24.2YARDLEY VOR/DME108.2010W
PNEr102/(26.1)NORTH PHILADELPHIA VOR112.0010W
SBJr166/34.1SOLBERG VOR/DME112.9010W
ACYr020/37.0ATLANTIC CITY VORTAC108.6010W
VCNr048/39.8CEDAR LAKE VOR/DME115.2010W

 
NDB name  Hdg/Dist  Freq  Var  ID
LAKEHURST294/5.039611WNEL -. . .-..
AMBLER108/38.927512WING .. -. --.
BRIDGE232/39.641412WOGY --- --. -.--

Heliport Services

Runway Information

Helipad H1

Dimensions: 1800 x 200 ft. / 549 x 61 m
Surface: turf, in fair condition
Traffic pattern: leftleft
Markings: none, in fair condition
Obstructions: trees

Heliport Ownership and Management from official FAA records

Ownership: Publicly-owned
Owner: NJ FOREST FIRE SERVICE
CN 404 501 EAST STATE ST
TRENTON, NJ 08625
Phone 609-292-2977
Manager: DAVID B. HARRISON

Heliport Operational Statistics

Aircraft based on the field: 1
Single engine airplanes: 1
    

Instrument Procedures

There are no published instrument procedures at 36NJ.

Some nearby airports with instrument procedures:

KNEL - Lakehurst Maxfield Field Airport (4 nm E)
KWRI - McGuire Field (Joint Base Mc Guire Dix Lakehurst) Airport (7 nm SW)
KMJX - Ocean County Airport (11 nm SE)
N87 - Trenton-Robbinsville Airport (12 nm NW)
N12 - Lakewood Airport (12 nm E)
KBLM - Monmouth Executive Airport (16 nm NE)
3N6 - Old Bridge Airport (17 nm N)
N73 - Red Lion Airport (17 nm SW)
N14 - Flying W Airport (19 nm SW)
KVAY - South Jersey Regional Airport (20 nm W)
 
Loc | Ops | Rwys | IFR | FBO | Links
Com | Nav | Svcs | Stats | Notes

AirNav Hotels Sweepstakes
 
Area around 36NJ (Colliers Mills Heliport)
 
Road maps at: MapQuest Bing Google
 
Aerial photo
No photo
 
Sectional chart

 
Airport distance calculator
Flying to Colliers Mills Heliport? Find the distance to fly.

From to 36NJ

Sunrise and sunset
Times for 25-Feb-2018
 Local
(UTC-5)
 Zulu
(UTC)
Morning civil twilight06:1111:11
Sunrise06:3811:38
Sunset17:4422:44
Evening civil twilight18:1123:11

Current date and time
Zulu (UTC)  25-Feb-2018 22:13:23
Local (UTC-5)  25-Feb-2018 17:13:23
 
METAR
KNEL 
6nm SE 
252200Z AUTO VRB03KT 3/4SM OVC004 08/08 A2998 RMK AO2 SFC VIS 7 SLP150 T00780078 PNO $
KWRI 
7nm SW 
252156Z AUTO 36005KT 10SM OVC004 08/07 A2996 RMK AO2 CIG 003 RWY18 SLP146 T00750069
KMJX 
11nm SE 
AWOS-3 119.875 732-244-4450
252056Z AUTO 31006KT 10SM OVC004 08/07 A2999 RMK AO2 SLP160 6//// T00780072 53028 PNO $
KBLM 
16nm NE 
AWOS-3 121.625 732-938-3330
252156Z AUTO 34006KT 6SM BR OVC003 06/06 A2999 RMK AO2 SLP159 T00610056
KVAY 
20nm SW 
ASOS 119.325 609-267-1176
252154Z AUTO 35005KT 10SM OVC006 08/07 A2999 RMK AO2 SLP156 T00780072
TAF
KWRI 
7nm SW 
252017Z 2520/2624 03006KT 9999 OVC004 510202 QNH2991INS BECMG 2523/2601 VRB06KT 9999 BKN010 OVC100 QNH2993INS BECMG 2601/2603 31006KT 9999 FEW012 BKN150 QNH2995INS BECMG 2617/2618 33006KT 9999 SCT150 QNH3009INS TX11/2521Z TN05/2610Z
NOTAMs
Click for the latest NOTAMs
NOTAMs are issued by the DoD/FAA and will open in a separate window not controlled by AirNav.

 

 
 

Would you like to see your business listed on this page?

 If your business provides an interesting product or service to pilots, flight crews, aircraft, or users of the Colliers Mills Heliport, you should consider listing it here.  To start the listing process, click on the button below
 
Add a business
 

Other Pages about Colliers Mills Heliport

Update a link
 
Copyright © AirNav, LLC. All rights reserved. Privacy Policy  Contact